sensor_id;sensor_type;location;lat;lon;timestamp;P1;durP1;ratioP1;P2;durP2;ratioP2
42192;SDS011;52467;40.114;18.306;2023-01-08T00:01:12;36.92;;;16.88;;
42192;SDS011;52467;40.114;18.306;2023-01-08T00:03:40;34.65;;;16.58;;
42192;SDS011;52467;40.114;18.306;2023-01-08T00:06:09;33.28;;;16.52;;
42192;SDS011;52467;40.114;18.306;2023-01-08T00:08:38;36.20;;;18.20;;
42192;SDS011;52467;40.114;18.306;2023-01-08T00:11:05;33.88;;;16.77;;
42192;SDS011;52467;40.114;18.306;2023-01-08T00:13:34;31.30;;;17.17;;
42192;SDS011;52467;40.114;18.306;2023-01-08T00:16:11;36.40;;;17.33;;
42192;SDS011;52467;40.114;18.306;2023-01-08T00:18:39;38.45;;;18.25;;
42192;SDS011;52467;40.114;18.306;2023-01-08T00:21:07;36.30;;;17.93;;
42192;SDS011;52467;40.114;18.306;2023-01-08T00:23:35;35.55;;;17.48;;
42192;SDS011;52467;40.114;18.306;2023-01-08T00:26:03;34.00;;;17.25;;
42192;SDS011;52467;40.114;18.306;2023-01-08T00:28:31;32.65;;;15.90;;
42192;SDS011;52467;40.114;18.306;2023-01-08T00:31:01;30.67;;;16.30;;
42192;SDS011;52467;40.114;18.306;2023-01-08T00:33:30;27.48;;;16.63;;
42192;SDS011;52467;40.114;18.306;2023-01-08T00:35:58;30.85;;;15.68;;
42192;SDS011;52467;40.114;18.306;2023-01-08T00:38:26;30.33;;;15.40;;
42192;SDS011;52467;40.114;18.306;2023-01-08T00:40:55;32.73;;;15.57;;
42192;SDS011;52467;40.114;18.306;2023-01-08T00:43:24;29.17;;;15.20;;
42192;SDS011;52467;40.114;18.306;2023-01-08T00:45:51;29.85;;;15.27;;
42192;SDS011;52467;40.114;18.306;2023-01-08T00:48:19;28.45;;;15.50;;
42192;SDS011;52467;40.114;18.306;2023-01-08T00:50:53;30.02;;;14.93;;
42192;SDS011;52467;40.114;18.306;2023-01-08T00:53:34;30.05;;;15.50;;
42192;SDS011;52467;40.114;18.306;2023-01-08T00:56:08;28.95;;;15.15;;
42192;SDS011;52467;40.114;18.306;2023-01-08T00:58:35;29.30;;;15.90;;
42192;SDS011;52467;40.114;18.306;2023-01-08T01:01:08;28.83;;;15.30;;
42192;SDS011;52467;40.114;18.306;2023-01-08T01:03:39;30.88;;;17.05;;
42192;SDS011;52467;40.114;18.306;2023-01-08T01:06:07;32.47;;;16.40;;
42192;SDS011;52467;40.114;18.306;2023-01-08T01:08:34;30.50;;;16.75;;
42192;SDS011;52467;40.114;18.306;2023-01-08T01:11:06;29.13;;;15.80;;
42192;SDS011;52467;40.114;18.306;2023-01-08T01:13:38;30.27;;;16.20;;
42192;SDS011;52467;40.114;18.306;2023-01-08T01:16:06;27.30;;;14.70;;
42192;SDS011;52467;40.114;18.306;2023-01-08T01:18:36;29.02;;;14.52;;
42192;SDS011;52467;40.114;18.306;2023-01-08T01:21:22;26.70;;;14.25;;
42192;SDS011;52467;40.114;18.306;2023-01-08T01:23:55;28.47;;;15.17;;
42192;SDS011;52467;40.114;18.306;2023-01-08T01:26:24;30.20;;;15.05;;
42192;SDS011;52467;40.114;18.306;2023-01-08T01:28:53;27.75;;;14.05;;
42192;SDS011;52467;40.114;18.306;2023-01-08T01:31:21;27.53;;;13.87;;
42192;SDS011;52467;40.114;18.306;2023-01-08T01:33:49;24.23;;;13.18;;
42192;SDS011;52467;40.114;18.306;2023-01-08T01:36:17;25.45;;;13.88;;
42192;SDS011;52467;40.114;18.306;2023-01-08T01:38:47;33.88;;;15.40;;
42192;SDS011;52467;40.114;18.306;2023-01-08T01:43:48;29.77;;;15.30;;
42192;SDS011;52467;40.114;18.306;2023-01-08T01:46:35;24.65;;;13.95;;
42192;SDS011;52467;40.114;18.306;2023-01-08T01:49:09;27.35;;;13.90;;
42192;SDS011;52467;40.114;18.306;2023-01-08T01:51:40;28.88;;;14.32;;
42192;SDS011;52467;40.114;18.306;2023-01-08T01:54:13;33.17;;;15.95;;
42192;SDS011;52467;40.114;18.306;2023-01-08T01:56:42;37.28;;;17.13;;
42192;SDS011;52467;40.114;18.306;2023-01-08T01:59:10;34.55;;;17.38;;
42192;SDS011;52467;40.114;18.306;2023-01-08T02:01:38;34.78;;;17.42;;
42192;SDS011;52467;40.114;18.306;2023-01-08T02:04:08;31.73;;;16.42;;
42192;SDS011;52467;40.114;18.306;2023-01-08T02:06:41;34.85;;;17.42;;
42192;SDS011;52467;40.114;18.306;2023-01-08T02:12:04;30.08;;;15.43;;
42192;SDS011;52467;40.114;18.306;2023-01-08T02:17:25;24.38;;;13.32;;
42192;SDS011;52467;40.114;18.306;2023-01-08T02:20:28;28.35;;;14.60;;
42192;SDS011;52467;40.114;18.306;2023-01-08T02:28:16;25.20;;;13.63;;
42192;SDS011;52467;40.114;18.306;2023-01-08T02:30:44;26.55;;;13.95;;
42192;SDS011;52467;40.114;18.306;2023-01-08T02:33:12;29.50;;;15.00;;
42192;SDS011;52467;40.114;18.306;2023-01-08T02:35:40;25.03;;;13.03;;
42192;SDS011;52467;40.114;18.306;2023-01-08T02:38:12;24.95;;;12.95;;
42192;SDS011;52467;40.114;18.306;2023-01-08T02:40:50;26.75;;;12.88;;
42192;SDS011;52467;40.114;18.306;2023-01-08T02:43:32;22.35;;;11.73;;
42192;SDS011;52467;40.114;18.306;2023-01-08T02:46:18;21.95;;;11.45;;
42192;SDS011;52467;40.114;18.306;2023-01-08T02:48:50;23.20;;;12.23;;
42192;SDS011;52467;40.114;18.306;2023-01-08T02:51:30;23.92;;;12.43;;
42192;SDS011;52467;40.114;18.306;2023-01-08T02:54:02;25.07;;;12.53;;
42192;SDS011;52467;40.114;18.306;2023-01-08T02:56:52;23.13;;;12.37;;
42192;SDS011;52467;40.114;18.306;2023-01-08T02:59:23;22.83;;;11.93;;
42192;SDS011;52467;40.114;18.306;2023-01-08T03:01:51;26.00;;;12.77;;
42192;SDS011;52467;40.114;18.306;2023-01-08T03:04:20;25.40;;;13.30;;
42192;SDS011;52467;40.114;18.306;2023-01-08T03:06:48;23.50;;;12.23;;
42192;SDS011;52467;40.114;18.306;2023-01-08T03:09:16;24.23;;;11.65;;
42192;SDS011;52467;40.114;18.306;2023-01-08T03:11:45;26.17;;;11.80;;
42192;SDS011;52467;40.114;18.306;2023-01-08T03:14:19;25.98;;;12.77;;
42192;SDS011;52467;40.114;18.306;2023-01-08T03:16:52;26.50;;;12.02;;
42192;SDS011;52467;40.114;18.306;2023-01-08T03:19:42;22.17;;;11.20;;
42192;SDS011;52467;40.114;18.306;2023-01-08T03:22:14;21.80;;;10.95;;
42192;SDS011;52467;40.114;18.306;2023-01-08T03:24:44;21.23;;;10.68;;
42192;SDS011;52467;40.114;18.306;2023-01-08T03:27:15;19.10;;;11.40;;
42192;SDS011;52467;40.114;18.306;2023-01-08T03:29:45;22.33;;;11.55;;
42192;SDS011;52467;40.114;18.306;2023-01-08T03:32:14;22.27;;;11.10;;
42192;SDS011;52467;40.114;18.306;2023-01-08T03:34:43;21.38;;;10.90;;
42192;SDS011;52467;40.114;18.306;2023-01-08T03:37:12;22.83;;;11.60;;
42192;SDS011;52467;40.114;18.306;2023-01-08T03:39:42;23.35;;;11.65;;
42192;SDS011;52467;40.114;18.306;2023-01-08T03:42:17;19.67;;;9.77;;
42192;SDS011;52467;40.114;18.306;2023-01-08T03:44:46;19.63;;;10.13;;
42192;SDS011;52467;40.114;18.306;2023-01-08T03:47:13;22.10;;;10.52;;
42192;SDS011;52467;40.114;18.306;2023-01-08T03:49:41;17.60;;;9.10;;
42192;SDS011;52467;40.114;18.306;2023-01-08T03:52:19;17.90;;;10.00;;
42192;SDS011;52467;40.114;18.306;2023-01-08T03:54:57;21.83;;;10.03;;
42192;SDS011;52467;40.114;18.306;2023-01-08T03:57:24;23.95;;;10.50;;
42192;SDS011;52467;40.114;18.306;2023-01-08T03:59:52;22.90;;;10.70;;
42192;SDS011;52467;40.114;18.306;2023-01-08T04:02:19;22.38;;;10.60;;
42192;SDS011;52467;40.114;18.306;2023-01-08T04:04:46;21.52;;;10.80;;
42192;SDS011;52467;40.114;18.306;2023-01-08T04:07:14;21.93;;;10.60;;
42192;SDS011;52467;40.114;18.306;2023-01-08T04:09:41;21.00;;;10.50;;
42192;SDS011;52467;40.114;18.306;2023-01-08T04:12:08;20.42;;;11.18;;
42192;SDS011;52467;40.114;18.306;2023-01-08T04:14:35;23.05;;;10.95;;
42192;SDS011;52467;40.114;18.306;2023-01-08T04:17:02;19.08;;;10.07;;
42192;SDS011;52467;40.114;18.306;2023-01-08T04:19:37;17.73;;;10.38;;
42192;SDS011;52467;40.114;18.306;2023-01-08T04:22:05;18.08;;;9.73;;
42192;SDS011;52467;40.114;18.306;2023-01-08T04:24:32;18.38;;;10.15;;
42192;SDS011;52467;40.114;18.306;2023-01-08T04:26:59;20.65;;;10.93;;
42192;SDS011;52467;40.114;18.306;2023-01-08T04:29:26;19.83;;;10.57;;
42192;SDS011;52467;40.114;18.306;2023-01-08T04:31:53;20.58;;;10.27;;
42192;SDS011;52467;40.114;18.306;2023-01-08T04:34:21;23.63;;;10.25;;
42192;SDS011;52467;40.114;18.306;2023-01-08T04:36:48;20.55;;;10.82;;
42192;SDS011;52467;40.114;18.306;2023-01-08T04:39:15;17.60;;;9.87;;
42192;SDS011;52467;40.114;18.306;2023-01-08T04:41:42;15.75;;;9.52;;
42192;SDS011;52467;40.114;18.306;2023-01-08T04:44:10;18.42;;;9.73;;
42192;SDS011;52467;40.114;18.306;2023-01-08T04:46:37;15.57;;;9.10;;
42192;SDS011;52467;40.114;18.306;2023-01-08T04:49:04;17.13;;;9.35;;
42192;SDS011;52467;40.114;18.306;2023-01-08T04:51:32;19.30;;;9.68;;
42192;SDS011;52467;40.114;18.306;2023-01-08T04:53:59;17.20;;;9.32;;
42192;SDS011;52467;40.114;18.306;2023-01-08T04:56:26;16.65;;;9.05;;
42192;SDS011;52467;40.114;18.306;2023-01-08T04:58:54;15.73;;;8.88;;
42192;SDS011;52467;40.114;18.306;2023-01-08T05:01:22;15.48;;;8.27;;
42192;SDS011;52467;40.114;18.306;2023-01-08T05:03:58;17.52;;;9.30;;
42192;SDS011;52467;40.114;18.306;2023-01-08T05:06:28;14.82;;;8.55;;
42192;SDS011;52467;40.114;18.306;2023-01-08T05:08:58;19.95;;;9.57;;
42192;SDS011;52467;40.114;18.306;2023-01-08T05:11:25;17.13;;;8.38;;
42192;SDS011;52467;40.114;18.306;2023-01-08T05:13:52;17.00;;;9.20;;
42192;SDS011;52467;40.114;18.306;2023-01-08T05:16:20;16.92;;;9.32;;
42192;SDS011;52467;40.114;18.306;2023-01-08T05:18:48;18.80;;;9.77;;
42192;SDS011;52467;40.114;18.306;2023-01-08T05:21:15;16.98;;;8.95;;
42192;SDS011;52467;40.114;18.306;2023-01-08T05:23:44;17.15;;;9.40;;
42192;SDS011;52467;40.114;18.306;2023-01-08T05:26:13;20.33;;;9.75;;
42192;SDS011;52467;40.114;18.306;2023-01-08T05:28:41;17.65;;;8.93;;
42192;SDS011;52467;40.114;18.306;2023-01-08T05:31:08;18.73;;;10.00;;
42192;SDS011;52467;40.114;18.306;2023-01-08T05:33:37;17.27;;;9.45;;
42192;SDS011;52467;40.114;18.306;2023-01-08T05:36:06;22.63;;;10.43;;
42192;SDS011;52467;40.114;18.306;2023-01-08T05:38:34;27.63;;;10.65;;
42192;SDS011;52467;40.114;18.306;2023-01-08T05:41:01;19.70;;;9.10;;
42192;SDS011;52467;40.114;18.306;2023-01-08T05:43:29;16.73;;;9.15;;
42192;SDS011;52467;40.114;18.306;2023-01-08T05:46:00;21.27;;;9.90;;
42192;SDS011;52467;40.114;18.306;2023-01-08T05:48:28;20.98;;;10.02;;
42192;SDS011;52467;40.114;18.306;2023-01-08T05:50:56;17.40;;;8.67;;
42192;SDS011;52467;40.114;18.306;2023-01-08T05:53:23;19.80;;;9.20;;
42192;SDS011;52467;40.114;18.306;2023-01-08T05:55:51;16.95;;;8.60;;
42192;SDS011;52467;40.114;18.306;2023-01-08T05:58:18;17.30;;;7.93;;
42192;SDS011;52467;40.114;18.306;2023-01-08T06:00:46;17.00;;;8.00;;
42192;SDS011;52467;40.114;18.306;2023-01-08T06:03:13;15.30;;;7.97;;
42192;SDS011;52467;40.114;18.306;2023-01-08T06:05:41;13.98;;;7.55;;
42192;SDS011;52467;40.114;18.306;2023-01-08T06:08:08;13.90;;;6.88;;
42192;SDS011;52467;40.114;18.306;2023-01-08T06:10:38;15.30;;;7.25;;
42192;SDS011;52467;40.114;18.306;2023-01-08T06:13:06;17.02;;;8.00;;
42192;SDS011;52467;40.114;18.306;2023-01-08T06:15:35;12.43;;;7.30;;
42192;SDS011;52467;40.114;18.306;2023-01-08T06:18:04;13.10;;;7.10;;
42192;SDS011;52467;40.114;18.306;2023-01-08T06:20:31;13.20;;;6.53;;
42192;SDS011;52467;40.114;18.306;2023-01-08T06:22:58;13.70;;;6.70;;
42192;SDS011;52467;40.114;18.306;2023-01-08T06:25:26;14.45;;;6.82;;
42192;SDS011;52467;40.114;18.306;2023-01-08T06:27:55;12.00;;;6.65;;
42192;SDS011;52467;40.114;18.306;2023-01-08T06:30:22;12.98;;;5.93;;
42192;SDS011;52467;40.114;18.306;2023-01-08T06:32:53;14.17;;;7.07;;
42192;SDS011;52467;40.114;18.306;2023-01-08T06:35:23;14.27;;;6.67;;
42192;SDS011;52467;40.114;18.306;2023-01-08T06:37:53;13.10;;;6.73;;
42192;SDS011;52467;40.114;18.306;2023-01-08T06:40:22;11.88;;;6.47;;
42192;SDS011;52467;40.114;18.306;2023-01-08T06:42:50;12.27;;;6.45;;
42192;SDS011;52467;40.114;18.306;2023-01-08T06:45:18;10.93;;;5.82;;
42192;SDS011;52467;40.114;18.306;2023-01-08T06:47:45;11.02;;;4.57;;
42192;SDS011;52467;40.114;18.306;2023-01-08T06:50:12;8.60;;;4.35;;
42192;SDS011;52467;40.114;18.306;2023-01-08T06:52:52;7.32;;;4.28;;
42192;SDS011;52467;40.114;18.306;2023-01-08T06:55:21;8.85;;;4.70;;
42192;SDS011;52467;40.114;18.306;2023-01-08T06:57:56;7.53;;;4.47;;
42192;SDS011;52467;40.114;18.306;2023-01-08T07:00:24;7.57;;;4.07;;
42192;SDS011;52467;40.114;18.306;2023-01-08T07:02:53;7.80;;;4.28;;
42192;SDS011;52467;40.114;18.306;2023-01-08T07:05:21;8.13;;;4.03;;
42192;SDS011;52467;40.114;18.306;2023-01-08T07:07:48;6.30;;;4.03;;
42192;SDS011;52467;40.114;18.306;2023-01-08T07:10:16;8.25;;;3.90;;
42192;SDS011;52467;40.114;18.306;2023-01-08T07:12:45;6.45;;;3.55;;
42192;SDS011;52467;40.114;18.306;2023-01-08T07:15:13;7.70;;;3.83;;
42192;SDS011;52467;40.114;18.306;2023-01-08T07:17:40;8.07;;;4.80;;
42192;SDS011;52467;40.114;18.306;2023-01-08T07:20:08;8.25;;;4.80;;
42192;SDS011;52467;40.114;18.306;2023-01-08T07:22:35;10.77;;;4.72;;
42192;SDS011;52467;40.114;18.306;2023-01-08T07:25:02;10.32;;;6.03;;
42192;SDS011;52467;40.114;18.306;2023-01-08T07:27:30;10.48;;;5.32;;
42192;SDS011;52467;40.114;18.306;2023-01-08T07:29:58;9.30;;;5.18;;
42192;SDS011;52467;40.114;18.306;2023-01-08T07:32:25;9.35;;;5.65;;
42192;SDS011;52467;40.114;18.306;2023-01-08T07:34:52;9.88;;;5.57;;
42192;SDS011;52467;40.114;18.306;2023-01-08T07:37:20;12.10;;;5.60;;
42192;SDS011;52467;40.114;18.306;2023-01-08T07:39:47;10.20;;;5.88;;
42192;SDS011;52467;40.114;18.306;2023-01-08T07:42:14;12.38;;;6.20;;
42192;SDS011;52467;40.114;18.306;2023-01-08T07:44:42;11.68;;;6.60;;
42192;SDS011;52467;40.114;18.306;2023-01-08T07:47:09;12.93;;;6.97;;
42192;SDS011;52467;40.114;18.306;2023-01-08T07:49:36;14.95;;;7.05;;
42192;SDS011;52467;40.114;18.306;2023-01-08T07:52:03;12.93;;;7.57;;
42192;SDS011;52467;40.114;18.306;2023-01-08T07:54:31;16.10;;;8.13;;
42192;SDS011;52467;40.114;18.306;2023-01-08T07:56:58;16.40;;;9.23;;
42192;SDS011;52467;40.114;18.306;2023-01-08T07:59:25;19.02;;;8.18;;
42192;SDS011;52467;40.114;18.306;2023-01-08T08:01:53;16.88;;;8.80;;
42192;SDS011;52467;40.114;18.306;2023-01-08T08:04:20;18.65;;;9.73;;
42192;SDS011;52467;40.114;18.306;2023-01-08T08:06:47;19.52;;;10.45;;
42192;SDS011;52467;40.114;18.306;2023-01-08T08:09:15;21.23;;;11.60;;
42192;SDS011;52467;40.114;18.306;2023-01-08T08:11:42;23.95;;;12.40;;
42192;SDS011;52467;40.114;18.306;2023-01-08T08:14:09;23.27;;;12.48;;
42192;SDS011;52467;40.114;18.306;2023-01-08T08:16:37;19.80;;;11.83;;
42192;SDS011;52467;40.114;18.306;2023-01-08T08:19:04;20.17;;;11.75;;
42192;SDS011;52467;40.114;18.306;2023-01-08T08:21:32;20.23;;;11.68;;
42192;SDS011;52467;40.114;18.306;2023-01-08T08:24:00;22.13;;;12.13;;
42192;SDS011;52467;40.114;18.306;2023-01-08T08:26:27;26.48;;;12.70;;
42192;SDS011;52467;40.114;18.306;2023-01-08T08:28:55;22.40;;;12.50;;
42192;SDS011;52467;40.114;18.306;2023-01-08T08:31:22;26.67;;;13.50;;
42192;SDS011;52467;40.114;18.306;2023-01-08T08:33:49;23.15;;;12.27;;
42192;SDS011;52467;40.114;18.306;2023-01-08T08:36:16;25.17;;;12.85;;
42192;SDS011;52467;40.114;18.306;2023-01-08T08:39:16;22.58;;;12.80;;
42192;SDS011;52467;40.114;18.306;2023-01-08T08:41:43;24.13;;;14.35;;
42192;SDS011;52467;40.114;18.306;2023-01-08T08:44:11;24.13;;;14.03;;
42192;SDS011;52467;40.114;18.306;2023-01-08T08:46:38;24.23;;;14.18;;
42192;SDS011;52467;40.114;18.306;2023-01-08T08:49:05;26.48;;;14.60;;
42192;SDS011;52467;40.114;18.306;2023-01-08T08:51:33;25.33;;;13.68;;
42192;SDS011;52467;40.114;18.306;2023-01-08T08:54:09;29.42;;;14.10;;
42192;SDS011;52467;40.114;18.306;2023-01-08T08:56:37;24.70;;;14.35;;
42192;SDS011;52467;40.114;18.306;2023-01-08T08:59:04;26.27;;;14.68;;
42192;SDS011;52467;40.114;18.306;2023-01-08T09:01:32;21.70;;;13.20;;
42192;SDS011;52467;40.114;18.306;2023-01-08T09:03:59;22.35;;;12.25;;
42192;SDS011;52467;40.114;18.306;2023-01-08T09:06:26;22.80;;;12.13;;
42192;SDS011;52467;40.114;18.306;2023-01-08T09:08:54;23.58;;;12.30;;
42192;SDS011;52467;40.114;18.306;2023-01-08T09:11:21;20.20;;;11.32;;
42192;SDS011;52467;40.114;18.306;2023-01-08T09:13:48;21.02;;;12.13;;
42192;SDS011;52467;40.114;18.306;2023-01-08T09:16:15;21.17;;;12.13;;
42192;SDS011;52467;40.114;18.306;2023-01-08T09:18:43;22.83;;;11.35;;
42192;SDS011;52467;40.114;18.306;2023-01-08T09:21:11;21.70;;;11.27;;
42192;SDS011;52467;40.114;18.306;2023-01-08T09:23:38;21.33;;;11.40;;
42192;SDS011;52467;40.114;18.306;2023-01-08T09:26:06;19.92;;;10.85;;
42192;SDS011;52467;40.114;18.306;2023-01-08T09:28:33;19.73;;;10.80;;
42192;SDS011;52467;40.114;18.306;2023-01-08T09:31:01;19.73;;;9.57;;
42192;SDS011;52467;40.114;18.306;2023-01-08T09:33:29;19.95;;;10.25;;
42192;SDS011;52467;40.114;18.306;2023-01-08T09:35:56;19.33;;;9.95;;
42192;SDS011;52467;40.114;18.306;2023-01-08T09:38:24;20.43;;;10.37;;
42192;SDS011;52467;40.114;18.306;2023-01-08T09:40:54;17.73;;;10.00;;
42192;SDS011;52467;40.114;18.306;2023-01-08T09:43:25;15.82;;;8.90;;
42192;SDS011;52467;40.114;18.306;2023-01-08T09:45:55;16.05;;;9.00;;
42192;SDS011;52467;40.114;18.306;2023-01-08T09:48:26;16.15;;;7.63;;
42192;SDS011;52467;40.114;18.306;2023-01-08T09:50:55;12.45;;;7.10;;
42192;SDS011;52467;40.114;18.306;2023-01-08T09:53:23;13.68;;;7.50;;
42192;SDS011;52467;40.114;18.306;2023-01-08T09:56:00;15.73;;;7.65;;
42192;SDS011;52467;40.114;18.306;2023-01-08T09:58:37;15.05;;;8.00;;
42192;SDS011;52467;40.114;18.306;2023-01-08T10:01:14;15.02;;;7.88;;
42192;SDS011;52467;40.114;18.306;2023-01-08T10:06:45;10.93;;;6.75;;
42192;SDS011;52467;40.114;18.306;2023-01-08T10:09:42;12.07;;;6.65;;
42192;SDS011;52467;40.114;18.306;2023-01-08T10:12:09;10.45;;;6.85;;
42192;SDS011;52467;40.114;18.306;2023-01-08T10:14:38;10.43;;;7.03;;
42192;SDS011;52467;40.114;18.306;2023-01-08T10:17:22;9.73;;;6.17;;
42192;SDS011;52467;40.114;18.306;2023-01-08T10:19:53;8.07;;;5.55;;
42192;SDS011;52467;40.114;18.306;2023-01-08T10:22:23;9.70;;;5.18;;
42192;SDS011;52467;40.114;18.306;2023-01-08T10:25:02;8.82;;;5.22;;
42192;SDS011;52467;40.114;18.306;2023-01-08T10:27:31;7.03;;;4.80;;
42192;SDS011;52467;40.114;18.306;2023-01-08T10:32:57;8.95;;;4.28;;
42192;SDS011;52467;40.114;18.306;2023-01-08T10:35:33;5.63;;;3.67;;
42192;SDS011;52467;40.114;18.306;2023-01-08T10:38:04;5.43;;;3.70;;
42192;SDS011;52467;40.114;18.306;2023-01-08T10:40:39;7.75;;;4.10;;
42192;SDS011;52467;40.114;18.306;2023-01-08T10:43:20;5.15;;;3.50;;
42192;SDS011;52467;40.114;18.306;2023-01-08T10:48:29;8.18;;;3.63;;
42192;SDS011;52467;40.114;18.306;2023-01-08T10:51:14;5.72;;;3.40;;
42192;SDS011;52467;40.114;18.306;2023-01-08T10:53:44;5.72;;;3.20;;
42192;SDS011;52467;40.114;18.306;2023-01-08T10:56:18;5.47;;;3.45;;
42192;SDS011;52467;40.114;18.306;2023-01-08T10:58:54;6.90;;;3.33;;
42192;SDS011;52467;40.114;18.306;2023-01-08T11:01:28;5.32;;;3.55;;
42192;SDS011;52467;40.114;18.306;2023-01-08T11:06:28;5.00;;;3.05;;
42192;SDS011;52467;40.114;18.306;2023-01-08T11:08:58;5.45;;;3.28;;
42192;SDS011;52467;40.114;18.306;2023-01-08T11:11:36;5.38;;;3.55;;
42192;SDS011;52467;40.114;18.306;2023-01-08T11:14:05;5.90;;;3.30;;
42192;SDS011;52467;40.114;18.306;2023-01-08T11:16:49;5.72;;;3.55;;
42192;SDS011;52467;40.114;18.306;2023-01-08T11:19:18;4.97;;;2.97;;
42192;SDS011;52467;40.114;18.306;2023-01-08T11:24:32;6.22;;;2.90;;
42192;SDS011;52467;40.114;18.306;2023-01-08T11:27:13;3.83;;;2.80;;
42192;SDS011;52467;40.114;18.306;2023-01-08T11:29:50;4.75;;;2.85;;
42192;SDS011;52467;40.114;18.306;2023-01-08T11:32:47;6.18;;;3.28;;
42192;SDS011;52467;40.114;18.306;2023-01-08T11:35:36;4.10;;;2.95;;
42192;SDS011;52467;40.114;18.306;2023-01-08T11:38:06;6.27;;;3.50;;
42192;SDS011;52467;40.114;18.306;2023-01-08T11:43:24;5.47;;;3.60;;
42192;SDS011;52467;40.114;18.306;2023-01-08T12:03:09;7.18;;;4.25;;
42192;SDS011;52467;40.114;18.306;2023-01-08T12:20:20;8.38;;;4.88;;
42192;SDS011;52467;40.114;18.306;2023-01-08T12:23:18;9.93;;;5.50;;
42192;SDS011;52467;40.114;18.306;2023-01-08T12:37:17;14.95;;;7.90;;
42192;SDS011;52467;40.114;18.306;2023-01-08T12:39:49;12.53;;;7.13;;
42192;SDS011;52467;40.114;18.306;2023-01-08T12:42:34;13.80;;;7.53;;
42192;SDS011;52467;40.114;18.306;2023-01-08T12:45:16;15.50;;;9.05;;
42192;SDS011;52467;40.114;18.306;2023-01-08T12:47:59;17.25;;;9.77;;
42192;SDS011;52467;40.114;18.306;2023-01-08T12:53:20;13.40;;;8.20;;
42192;SDS011;52467;40.114;18.306;2023-01-08T13:01:28;13.47;;;8.73;;
42192;SDS011;52467;40.114;18.306;2023-01-08T13:04:08;13.73;;;8.18;;
42192;SDS011;52467;40.114;18.306;2023-01-08T13:06:36;16.10;;;8.73;;
42192;SDS011;52467;40.114;18.306;2023-01-08T13:09:03;13.23;;;7.90;;
42192;SDS011;52467;40.114;18.306;2023-01-08T13:11:32;13.88;;;7.97;;
42192;SDS011;52467;40.114;18.306;2023-01-08T13:14:03;11.98;;;6.30;;
42192;SDS011;52467;40.114;18.306;2023-01-08T13:16:39;14.20;;;7.22;;
42192;SDS011;52467;40.114;18.306;2023-01-08T13:19:21;11.07;;;6.65;;
42192;SDS011;52467;40.114;18.306;2023-01-08T13:21:51;10.13;;;5.90;;
42192;SDS011;52467;40.114;18.306;2023-01-08T13:24:31;10.43;;;5.60;;
42192;SDS011;52467;40.114;18.306;2023-01-08T13:29:49;9.38;;;5.55;;
42192;SDS011;52467;40.114;18.306;2023-01-08T13:35:24;8.63;;;4.18;;
42192;SDS011;52467;40.114;18.306;2023-01-08T13:43:23;8.38;;;4.68;;
42192;SDS011;52467;40.114;18.306;2023-01-08T13:48:33;6.07;;;4.20;;
42192;SDS011;52467;40.114;18.306;2023-01-08T13:54:05;10.98;;;7.05;;
42192;SDS011;52467;40.114;18.306;2023-01-08T13:56:41;9.73;;;5.57;;
42192;SDS011;52467;40.114;18.306;2023-01-08T13:59:18;10.55;;;6.20;;
42192;SDS011;52467;40.114;18.306;2023-01-08T14:05:13;9.05;;;5.20;;
42192;SDS011;52467;40.114;18.306;2023-01-08T14:07:52;9.33;;;5.63;;
42192;SDS011;52467;40.114;18.306;2023-01-08T14:10:20;11.25;;;6.93;;
42192;SDS011;52467;40.114;18.306;2023-01-08T14:12:47;8.00;;;5.57;;
42192;SDS011;52467;40.114;18.306;2023-01-08T14:15:20;8.23;;;5.78;;
42192;SDS011;52467;40.114;18.306;2023-01-08T14:17:54;10.70;;;5.90;;
42192;SDS011;52467;40.114;18.306;2023-01-08T14:20:29;11.02;;;6.28;;
42192;SDS011;52467;40.114;18.306;2023-01-08T14:23:02;14.50;;;8.18;;
42192;SDS011;52467;40.114;18.306;2023-01-08T14:25:35;10.23;;;6.57;;
42192;SDS011;52467;40.114;18.306;2023-01-08T14:28:04;8.73;;;5.50;;
42192;SDS011;52467;40.114;18.306;2023-01-08T14:30:31;9.23;;;5.53;;
42192;SDS011;52467;40.114;18.306;2023-01-08T14:32:59;10.82;;;6.15;;
42192;SDS011;52467;40.114;18.306;2023-01-08T14:35:35;12.70;;;6.70;;
42192;SDS011;52467;40.114;18.306;2023-01-08T14:38:03;11.50;;;6.28;;
42192;SDS011;52467;40.114;18.306;2023-01-08T14:40:33;13.23;;;6.97;;
42192;SDS011;52467;40.114;18.306;2023-01-08T14:43:08;10.30;;;6.57;;
42192;SDS011;52467;40.114;18.306;2023-01-08T14:45:47;10.77;;;6.72;;
42192;SDS011;52467;40.114;18.306;2023-01-08T14:48:17;11.27;;;6.97;;
42192;SDS011;52467;40.114;18.306;2023-01-08T14:50:57;8.73;;;5.72;;
42192;SDS011;52467;40.114;18.306;2023-01-08T14:53:37;10.75;;;7.03;;
42192;SDS011;52467;40.114;18.306;2023-01-08T14:56:12;12.52;;;7.45;;
42192;SDS011;52467;40.114;18.306;2023-01-08T14:58:45;11.57;;;6.57;;
42192;SDS011;52467;40.114;18.306;2023-01-08T15:03:45;10.13;;;6.20;;
42192;SDS011;52467;40.114;18.306;2023-01-08T15:06:27;12.32;;;6.30;;
42192;SDS011;52467;40.114;18.306;2023-01-08T15:08:56;12.07;;;6.78;;
42192;SDS011;52467;40.114;18.306;2023-01-08T15:13:56;14.55;;;6.95;;
42192;SDS011;52467;40.114;18.306;2023-01-08T15:21:27;10.32;;;6.93;;
42192;SDS011;52467;40.114;18.306;2023-01-08T15:23:55;10.85;;;7.00;;
42192;SDS011;52467;40.114;18.306;2023-01-08T15:26:23;13.57;;;7.25;;
42192;SDS011;52467;40.114;18.306;2023-01-08T15:28:52;13.43;;;8.38;;
42192;SDS011;52467;40.114;18.306;2023-01-08T15:34:08;14.32;;;8.65;;
42192;SDS011;52467;40.114;18.306;2023-01-08T15:36:36;17.50;;;9.93;;
42192;SDS011;52467;40.114;18.306;2023-01-08T15:39:04;20.00;;;10.50;;
42192;SDS011;52467;40.114;18.306;2023-01-08T15:41:34;20.02;;;11.00;;
42192;SDS011;52467;40.114;18.306;2023-01-08T15:44:21;17.50;;;10.13;;
42192;SDS011;52467;40.114;18.306;2023-01-08T15:46:51;22.00;;;11.48;;
42192;SDS011;52467;40.114;18.306;2023-01-08T15:49:19;19.23;;;10.73;;
42192;SDS011;52467;40.114;18.306;2023-01-08T15:51:47;19.65;;;11.43;;
42192;SDS011;52467;40.114;18.306;2023-01-08T15:54:15;24.75;;;12.05;;
42192;SDS011;52467;40.114;18.306;2023-01-08T15:56:45;21.45;;;12.77;;
42192;SDS011;52467;40.114;18.306;2023-01-08T15:59:19;20.08;;;12.15;;
42192;SDS011;52467;40.114;18.306;2023-01-08T16:01:47;22.45;;;12.50;;
42192;SDS011;52467;40.114;18.306;2023-01-08T16:04:15;21.70;;;12.02;;
42192;SDS011;52467;40.114;18.306;2023-01-08T16:06:42;24.55;;;13.40;;
42192;SDS011;52467;40.114;18.306;2023-01-08T16:09:09;25.00;;;13.27;;
42192;SDS011;52467;40.114;18.306;2023-01-08T16:11:37;24.58;;;12.35;;
42192;SDS011;52467;40.114;18.306;2023-01-08T16:14:04;27.73;;;14.07;;
42192;SDS011;52467;40.114;18.306;2023-01-08T16:16:31;27.77;;;13.77;;
42192;SDS011;52467;40.114;18.306;2023-01-08T16:18:59;21.52;;;12.52;;
42192;SDS011;52467;40.114;18.306;2023-01-08T16:21:26;24.48;;;13.00;;
42192;SDS011;52467;40.114;18.306;2023-01-08T16:23:53;21.73;;;13.27;;
42192;SDS011;52467;40.114;18.306;2023-01-08T16:26:21;26.43;;;13.57;;
42192;SDS011;52467;40.114;18.306;2023-01-08T16:28:48;24.17;;;13.00;;
42192;SDS011;52467;40.114;18.306;2023-01-08T16:31:15;24.33;;;13.18;;
42192;SDS011;52467;40.114;18.306;2023-01-08T16:33:42;23.25;;;12.73;;